Flight Track Log - Related Links

Times and Time Zones

All times are in EDT time to prevent confusion due to time zone crossing. See the EJA947 flight status page for this flight to view local times or setup timezone preferences in your user account.

Time Position Orientation Groundspeed Altitude Reporting Facility
EDT Latitude Longitude Course Direction KTS MPH feet Rate Location/Type
Sat 01:25:53 PM 33.1167 -117.3167 253° West 187 215 2,000  Level Southern California TRACON
Sat 01:26:53 PM 33.1000 -117.3833 253° West 240 276 4,900 2,500 Climbing Southern California TRACON
Sat 01:27:53 PM 33.0667 -117.3333 128° Southeast 280 322 7,000 2,365 Climbing Southern California TRACON
Sat 01:29:43 PM 33.1292 -117.1592 67° East 309 356 11,600 2,233 Climbing Los Angeles Center
Sat 01:30:45 PM 33.1686 -117.0536 66° East 335 386 13,400 1,645 Climbing Los Angeles Center
Sat 01:31:47 PM 33.2131 -116.9403 65° Northeast 366 421 15,000 968 Climbing Los Angeles Center
Sat 01:32:49 PM 33.2767 -116.8253 56° Northeast 407 468 15,400 968 Climbing Los Angeles Center
Sat 01:33:51 PM 33.3394 -116.7064 58° Northeast 420 483 17,000 1,742 Climbing Los Angeles Center
Sat 01:34:53 PM 33.4008 -116.5906 58° Northeast 413 475 19,000 1,935 Climbing Los Angeles Center
Sat 01:35:55 PM 33.4750 -116.4500 58° Northeast 413 475 21,000 1,584 Climbing Los Angeles Center
Sat 01:36:58 PM 33.5372 -116.3317 58° Northeast 417 480 22,300 1,344 Climbing Los Angeles Center
Sat 01:38:00 PM 33.6025 -116.2072 58° Northeast 435 501 23,800 1,500 Climbing Los Angeles Center
Sat 01:39:02 PM 33.6597 -116.0725 63° Northeast 451 519 25,400 1,597 Climbing Los Angeles Center
Sat 01:40:04 PM 33.7119 -115.9331 66° East 456 525 27,100 1,597 Climbing Los Angeles Center
Sat 01:41:06 PM 33.7667 -115.7922 65° Northeast 461 531 28,700 1,500 Climbing Los Angeles Center
Sat 01:42:08 PM 33.8197 -115.6478 66° East 469 540 30,200 2,177 Climbing Los Angeles Center
Sat 01:43:10 PM 33.8847 -115.4700 66° East 481 554 33,200 2,806 Climbing Los Angeles Center
Sat 01:44:12 PM 33.9356 -115.3331 66° East 459 528 36,000 1,839 Climbing Los Angeles Center
Sat 01:45:14 PM 33.9869 -115.1906 66° East 459 528 37,000 484 Climbing Los Angeles Center
Sat 01:46:16 PM 34.0428 -115.0389 66° East 484 557 37,000  Level Los Angeles Center
Sat 01:47:19 PM 34.1022 -114.8794 66° East 514 592 37,000  Level Los Angeles Center
Sat 01:48:21 PM 34.1608 -114.7203 66° East 519 597 37,000  Level Los Angeles Center
Sat 01:49:23 PM 34.2300 -114.5281 66° East 523 602 37,000  Level Los Angeles Center
Sat 01:50:25 PM 34.2858 -114.3686 67° East 517 595 37,000  Level Los Angeles Center
Sat 01:50:54 PM 34.3133 -114.2922 66° East 520 598 37,000  Level Albuquerque Center
Sat 01:51:56 PM 34.3722 -114.1306 66° East 522 601 37,000  Level Albuquerque Center
Sat 01:52:58 PM 34.4286 -113.9706 67° East 520 598 37,000  Level Albuquerque Center
Sat 01:54:00 PM 34.4850 -113.8122 67° East 517 595 37,000  Level Albuquerque Center
Sat 01:55:02 PM 34.5500 -113.6256 67° East 516 594 37,000  Level Albuquerque Center
Sat 01:56:04 PM 34.6072 -113.4633 67° East 522 601 37,000  Level Albuquerque Center
Sat 01:57:06 PM 34.6628 -113.3014 67° East 525 604 37,000  Level Albuquerque Center
Sat 01:58:08 PM 34.7181 -113.1411 67° East 523 602 37,000  Level Albuquerque Center
Sat 01:59:10 PM 34.7731 -112.9800 67° East 522 601 37,000  Level Albuquerque Center
Sat 02:00:11 PM 34.8389 -112.7883 67° East 521 600 37,000  Level Albuquerque Center
Sat 02:01:13 PM 34.8931 -112.6278 68° East 520 598 37,000  Level Albuquerque Center
Sat 02:02:15 PM 34.9467 -112.4672 68° East 519 597 37,000  Level Albuquerque Center
Sat 02:03:17 PM 35.0000 -112.3075 68° East 516 594 37,000  Level Albuquerque Center
Sat 02:04:19 PM 35.0539 -112.1461 68° East 518 596 37,000  Level Albuquerque Center
Sat 02:05:21 PM 35.1186 -111.9511 68° East 521 600 37,000  Level Albuquerque Center
Sat 02:06:23 PM 35.1728 -111.7881 68° East 522 601 37,000 435 Level Albuquerque Center
Sat 02:07:25 PM 35.2317 -111.6100 68° East 521 600 37,900 1,452 Climbing Albuquerque Center
Sat 02:08:27 PM 35.2825 -111.4492 69° East 512 589 40,000 1,790 Climbing Albuquerque Center
Sat 02:09:29 PM 35.3361 -111.2883 68° East 483 556 41,600 1,161 Climbing Albuquerque Center
Sat 02:10:31 PM 35.3828 -111.1431 68° East 480 552 42,400 585 Climbing Albuquerque Center
Sat 02:11:32 PM 35.4403 -110.9681 68° East 491 565 42,800 293 Climbing Albuquerque Center
Sat 02:12:34 PM 35.4881 -110.8136 69° East 502 578 43,000 97 Climbing Albuquerque Center
Sat 02:13:36 PM 35.5406 -110.6539 68° East 521 600 43,000  Level Albuquerque Center
Sat 02:14:38 PM 35.6006 -110.4636 69° East 531 611 43,000  Level Albuquerque Center
Sat 02:15:40 PM 35.6514 -110.3003 69° East 535 616 43,000  Level Albuquerque Center
Sat 02:16:42 PM 35.7103 -110.1086 69° East 536 617 43,000  Level Albuquerque Center
Sat 02:17:44 PM 35.7589 -109.9506 69° East 523 602 43,000  Level Albuquerque Center
Sat 02:18:45 PM 35.8172 -109.7689 68° East 514 592 43,000  Level Albuquerque Center
Sat 02:19:47 PM 35.8664 -109.6064 69° East 524 603 43,000  Level Albuquerque Center
Sat 02:20:32 PM 35.9072 -109.4706 70° East 529 609 43,000  Level Denver Center
Sat 02:21:33 PM 35.9561 -109.3058 70° East 532 612 43,000  Level Denver Center
Sat 02:21:51 PM 35.9628 -109.2461 82° East 537 618 43,000  Level Albuquerque Center
Sat 02:22:35 PM 35.9689 -109.0969 87° East 551 634 43,000  Level Denver Center
Sat 02:23:37 PM 35.9844 -108.9239 84° East 542 624 43,000  Level Denver Center
Sat 02:24:38 PM 36.0042 -108.7211 83° East 550 633 43,000  Level Denver Center
Sat 02:24:56 PM 36.0072 -108.6933 82° East 543 625 43,000  Level Albuquerque Center
Sat 02:25:58 PM 36.0269 -108.4875 83° East 543 625 43,000  Level Albuquerque Center
Sat 02:26:59 PM 36.0636 -108.2861 77° East 541 623 43,000  Level Albuquerque Center
Sat 02:28:01 PM 36.1097 -108.1183 71° East 540 621 43,000  Level Albuquerque Center
Sat 02:28:45 PM 36.1522 -107.9806 69° East 537 618 43,000  Level Denver Center
Sat 02:29:46 PM 36.2039 -107.8161 69° East 537 618 43,000  Level Denver Center
Sat 02:30:48 PM 36.2542 -107.6503 69° East 538 619 43,000  Level Denver Center
Sat 02:31:49 PM 36.3133 -107.4592 69° East 534 615 43,000  Level Denver Center
Sat 02:32:51 PM 36.3631 -107.2942 69° East 533 613 43,000  Level Denver Center
Sat 02:33:53 PM 36.4211 -107.1025 69° East 532 612 43,000  Level Denver Center
Sat 02:34:54 PM 36.4700 -106.9386 70° East 531 611 43,000  Level Denver Center
Sat 02:35:56 PM 36.5261 -106.7456 70° East 532 612 43,000  Level Denver Center
Sat 02:36:57 PM 36.5753 -106.5803 70° East 531 611 43,000  Level Denver Center
Sat 02:37:59 PM 36.6222 -106.4222 70° East 533 613 43,000  Level Denver Center
Sat 02:39:01 PM 36.6744 -106.2494 69° East 532 612 43,000  Level Denver Center
Sat 02:40:02 PM 36.7333 -106.0400 71° East 533 613 43,000  Level Denver Center
Sat 02:41:04 PM 36.7803 -105.8814 70° East 531 611 43,000  Level Denver Center
Sat 02:43:07 PM 36.8817 -105.5214 71° East 530 610 43,000  Level Denver Center
Sat 02:44:08 PM 36.9369 -105.3286 70° East 528 608 43,000  Level Denver Center
Sat 02:45:10 PM 36.9808 -105.1714 71° East 533 613 43,000  Level Denver Center
Sat 02:46:11 PM 37.0286 -104.9903 72° East 539 620 43,000  Level Denver Center
Sat 02:47:13 PM 37.0833 -104.7917 71° East 541 623 43,000  Level Denver Center
Sat 02:48:14 PM 37.1303 -104.6217 71° East 541 623 43,000  Level Denver Center
Sat 02:49:16 PM 37.1828 -104.4289 71° East 528 608 43,000  Level Denver Center
Sat 02:50:17 PM 37.2269 -104.2644 71° East 522 601 43,000  Level Denver Center
Sat 02:51:19 PM 37.2792 -104.0708 71° East 528 608 43,000  Level Denver Center
Sat 02:52:20 PM 37.3233 -103.9056 71° East 530 610 43,000  Level Denver Center
Sat 02:53:22 PM 37.3756 -103.7150 71° East 524 603 43,000  Level Denver Center
Sat 02:54:23 PM 37.4197 -103.5467 72° East 532 612 43,000  Level Denver Center
Sat 02:55:25 PM 37.4717 -103.3486 72° East 536 617 43,000  Level Denver Center
Sat 02:56:26 PM 37.5158 -103.1764 72° East 539 620 43,000  Level Denver Center
Sat 02:57:28 PM 37.5606 -103.0061 72° East 536 617 43,000  Level Denver Center
Sat 02:58:29 PM 37.6108 -102.8047 72° East 540 621 43,000  Level Denver Center
Sat 02:59:31 PM 37.6556 -102.6300 72° East 545 627 43,000  Level Denver Center
Sat 03:00:32 PM 37.7039 -102.4386 72° East 547 629 43,000 49 Level Denver Center
Sat 03:01:34 PM 37.7481 -102.2597 73° East 555 639 43,100  Climbing Denver Center
Sat 03:02:35 PM 37.8000 -102.0511 72° East 557 641 43,000 -49 Descending Denver Center
Sat 03:03:36 PM 37.8439 -101.8717 73° East 558 642 43,000  Level Denver Center
Sat 03:04:38 PM 37.8947 -101.6625 73° East 556 640 43,000  Level Denver Center
Sat 03:05:39 PM 37.9386 -101.4836 73° East 555 639 43,000  Level Denver Center
Sat 03:06:41 PM 37.9814 -101.3036 73° East 555 639 43,000  Level Denver Center
Sat 03:07:42 PM 38.0317 -101.0933 73° East 554 638 43,000  Level Denver Center
Sat 03:08:44 PM 38.0750 -100.9131 73° East 554 638 43,000  Level Denver Center
Sat 03:09:45 PM 38.1172 -100.7314 73° East 555 639 43,000  Level Denver Center
Sat 03:10:46 PM 38.1658 -100.5217 74° East 552 635 43,000  Level Denver Center
Sat 03:11:48 PM 38.2078 -100.3411 73° East 554 638 43,000 -1,024 Level Denver Center
Sat 03:12:49 PM 38.2556 -100.1308 74° East 554 638 40,900 -1,948 Descending Denver Center
Sat 03:13:05 PM 38.2606 -100.0978 79° East 553 636 40,500 -2,416 Descending Kansas City Center
Sat 03:14:06 PM 38.2994 -99.9261 74° East 534 615 37,800 -2,806 Descending Kansas City Center
Sat 03:15:09 PM 38.3469 -99.7236 73° East 532 612 34,700 -2,855 Descending Kansas City Center
Sat 03:16:10 PM 38.3856 -99.5497 74° East 532 612 31,900 -2,902 Descending Kansas City Center
Sat 03:17:11 PM 38.4292 -99.3514 74° East 542 624 28,800 -2,902 Descending Kansas City Center
Sat 03:18:12 PM 38.4683 -99.1694 75° East 533 613 26,000 -2,705 Descending Kansas City Center
Sat 03:19:13 PM 38.5078 -98.9958 74° East 517 595 23,300 -2,634 Descending Kansas City Center
Sat 03:20:15 PM 38.5447 -98.8233 75° East 506 582 20,600 -2,524 Descending Kansas City Center
Sat 03:21:19 PM 38.5814 -98.6586 74° East 483 556 18,000 -2,381 Descending Kansas City Center
Sat 03:22:21 PM 38.6139 -98.4994 75° East 465 535 15,600 -2,213 Descending Kansas City Center
Sat 03:23:21 PM 38.6442 -98.3592 75° East 407 468 13,500 -2,182 Descending Kansas City Center
Sat 03:24:22 PM 38.6831 -98.2167 71° East 354 407 11,200 -1,968 Descending Kansas City Center
Sat 03:25:26 PM 38.7222 -98.1108 65° Northeast 327 376 9,400 -1,694 Descending Kansas City Center
Sat 03:26:26 PM 38.7592 -98.0108 65° Northeast 311 358 7,700 -1,645 Descending Kansas City Center
Sat 03:27:30 PM 38.7933 -97.9142 66° East 298 343 6,000 -1,659 Descending Kansas City Center
Sat 03:28:29 PM 38.8319 -97.8139 64° Northeast 283 326 4,300 -1,525 Descending Kansas City Center
Sat 03:29:32 PM 38.8650 -97.7236 65° Northeast 270 311 2,900 -823 Descending Kansas City Center
Sat 03:30:33 PM 38.8669 -97.6572 88° East 207 238 2,600 -435 Descending Kansas City Center
Sat 03:31:36 PM 38.8300 -97.6447 165° South 146 168 2,000 -571 Descending Kansas City Center

Login

Don't have an account? Register now (free) for customized features, flight alerts, and more!